sensor_id;sensor_type;location;lat;lon;timestamp;P1;durP1;ratioP1;P2;durP2;ratioP2
55312;SDS011;46892;45.668;11.756;2023-06-14T00:01:24;8.63;;;6.17;;
55312;SDS011;46892;45.668;11.756;2023-06-14T00:03:50;7.13;;;5.90;;
55312;SDS011;46892;45.668;11.756;2023-06-14T00:06:15;7.30;;;5.70;;
55312;SDS011;46892;45.668;11.756;2023-06-14T00:08:43;7.23;;;4.83;;
55312;SDS011;46892;45.668;11.756;2023-06-14T00:11:08;8.40;;;5.57;;
55312;SDS011;46892;45.668;11.756;2023-06-14T00:13:34;6.43;;;5.47;;
55312;SDS011;46892;45.668;11.756;2023-06-14T00:16:00;6.87;;;5.70;;
55312;SDS011;46892;45.668;11.756;2023-06-14T00:18:26;7.93;;;5.03;;
55312;SDS011;46892;45.668;11.756;2023-06-14T00:20:55;6.50;;;5.00;;
55312;SDS011;46892;45.668;11.756;2023-06-14T00:23:21;6.93;;;5.30;;
55312;SDS011;46892;45.668;11.756;2023-06-14T00:25:47;6.13;;;4.70;;
55312;SDS011;46892;45.668;11.756;2023-06-14T00:28:13;11.10;;;5.37;;
55312;SDS011;46892;45.668;11.756;2023-06-14T00:30:39;6.00;;;4.50;;
55312;SDS011;46892;45.668;11.756;2023-06-14T00:33:04;6.30;;;4.80;;
55312;SDS011;46892;45.668;11.756;2023-06-14T00:35:30;7.23;;;4.63;;
55312;SDS011;46892;45.668;11.756;2023-06-14T00:37:57;9.20;;;5.20;;
55312;SDS011;46892;45.668;11.756;2023-06-14T00:40:22;6.37;;;4.77;;
55312;SDS011;46892;45.668;11.756;2023-06-14T00:42:48;6.43;;;4.43;;
55312;SDS011;46892;45.668;11.756;2023-06-14T00:45:15;6.10;;;4.50;;
55312;SDS011;46892;45.668;11.756;2023-06-14T00:47:41;5.63;;;4.53;;
55312;SDS011;46892;45.668;11.756;2023-06-14T00:50:08;7.00;;;4.77;;
55312;SDS011;46892;45.668;11.756;2023-06-14T00:52:35;5.90;;;5.00;;
55312;SDS011;46892;45.668;11.756;2023-06-14T00:55:01;6.10;;;5.33;;
55312;SDS011;46892;45.668;11.756;2023-06-14T00:57:27;7.90;;;5.80;;
55312;SDS011;46892;45.668;11.756;2023-06-14T00:59:54;7.00;;;5.30;;
55312;SDS011;46892;45.668;11.756;2023-06-14T01:02:21;6.90;;;5.23;;
55312;SDS011;46892;45.668;11.756;2023-06-14T01:04:47;7.20;;;5.37;;
55312;SDS011;46892;45.668;11.756;2023-06-14T01:07:17;10.63;;;5.67;;
55312;SDS011;46892;45.668;11.756;2023-06-14T01:15:32;7.57;;;5.27;;
55312;SDS011;46892;45.668;11.756;2023-06-14T01:17:59;5.43;;;4.70;;
55312;SDS011;46892;45.668;11.756;2023-06-14T01:20:28;5.67;;;4.70;;
55312;SDS011;46892;45.668;11.756;2023-06-14T01:22:56;6.47;;;4.90;;
55312;SDS011;46892;45.668;11.756;2023-06-14T01:25:22;5.93;;;4.70;;
55312;SDS011;46892;45.668;11.756;2023-06-14T01:28:06;7.90;;;5.10;;
55312;SDS011;46892;45.668;11.756;2023-06-14T01:30:36;18.13;;;11.90;;
55312;SDS011;46892;45.668;11.756;2023-06-14T01:33:03;18.77;;;13.27;;
55312;SDS011;46892;45.668;11.756;2023-06-14T01:35:30;14.33;;;9.50;;
55312;SDS011;46892;45.668;11.756;2023-06-14T01:37:56;7.73;;;5.10;;
55312;SDS011;46892;45.668;11.756;2023-06-14T01:40:24;7.77;;;5.90;;
55312;SDS011;46892;45.668;11.756;2023-06-14T01:42:51;9.27;;;6.57;;
55312;SDS011;46892;45.668;11.756;2023-06-14T01:45:17;7.33;;;5.13;;
55312;SDS011;46892;45.668;11.756;2023-06-14T01:47:44;8.53;;;5.00;;
55312;SDS011;46892;45.668;11.756;2023-06-14T01:50:11;12.37;;;4.83;;
55312;SDS011;46892;45.668;11.756;2023-06-14T01:52:37;13.50;;;5.90;;
55312;SDS011;46892;45.668;11.756;2023-06-14T01:55:06;8.67;;;5.50;;
55312;SDS011;46892;45.668;11.756;2023-06-14T01:57:33;7.25;;;4.90;;
55312;SDS011;46892;45.668;11.756;2023-06-14T01:59:58;9.23;;;5.40;;
55312;SDS011;46892;45.668;11.756;2023-06-14T02:02:24;7.17;;;5.20;;
55312;SDS011;46892;45.668;11.756;2023-06-14T02:04:50;7.30;;;5.20;;
55312;SDS011;46892;45.668;11.756;2023-06-14T02:07:16;7.20;;;5.00;;
55312;SDS011;46892;45.668;11.756;2023-06-14T02:09:41;8.67;;;4.53;;
55312;SDS011;46892;45.668;11.756;2023-06-14T02:12:07;8.80;;;4.43;;
55312;SDS011;46892;45.668;11.756;2023-06-14T02:14:33;5.27;;;4.10;;
55312;SDS011;46892;45.668;11.756;2023-06-14T02:16:59;8.00;;;5.07;;
55312;SDS011;46892;45.668;11.756;2023-06-14T02:19:26;8.67;;;5.73;;
55312;SDS011;46892;45.668;11.756;2023-06-14T02:21:52;7.63;;;4.87;;
55312;SDS011;46892;45.668;11.756;2023-06-14T02:24:18;9.10;;;5.30;;
55312;SDS011;46892;45.668;11.756;2023-06-14T02:26:43;7.30;;;4.90;;
55312;SDS011;46892;45.668;11.756;2023-06-14T02:29:09;13.17;;;5.53;;
55312;SDS011;46892;45.668;11.756;2023-06-14T02:31:37;9.60;;;5.47;;
55312;SDS011;46892;45.668;11.756;2023-06-14T02:34:03;6.23;;;5.03;;
55312;SDS011;46892;45.668;11.756;2023-06-14T02:36:29;7.50;;;5.00;;
55312;SDS011;46892;45.668;11.756;2023-06-14T02:38:55;12.43;;;5.30;;
55312;SDS011;46892;45.668;11.756;2023-06-14T02:41:24;10.43;;;5.47;;
55312;SDS011;46892;45.668;11.756;2023-06-14T02:43:51;10.63;;;5.33;;
55312;SDS011;46892;45.668;11.756;2023-06-14T02:46:17;9.13;;;4.53;;
55312;SDS011;46892;45.668;11.756;2023-06-14T02:48:43;10.13;;;5.37;;
55312;SDS011;46892;45.668;11.756;2023-06-14T02:51:10;11.40;;;5.63;;
55312;SDS011;46892;45.668;11.756;2023-06-14T02:53:36;15.23;;;6.10;;
55312;SDS011;46892;45.668;11.756;2023-06-14T02:56:02;16.07;;;5.47;;
55312;SDS011;46892;45.668;11.756;2023-06-14T02:58:29;9.27;;;5.50;;
55312;SDS011;46892;45.668;11.756;2023-06-14T03:00:55;7.27;;;5.43;;
55312;SDS011;46892;45.668;11.756;2023-06-14T03:03:21;8.53;;;5.43;;
55312;SDS011;46892;45.668;11.756;2023-06-14T03:05:49;11.90;;;5.43;;
55312;SDS011;46892;45.668;11.756;2023-06-14T03:08:16;9.20;;;5.90;;
55312;SDS011;46892;45.668;11.756;2023-06-14T03:10:47;12.20;;;5.77;;
55312;SDS011;46892;45.668;11.756;2023-06-14T03:13:14;9.38;;;5.32;;
55312;SDS011;46892;45.668;11.756;2023-06-14T03:15:46;8.03;;;5.20;;
55312;SDS011;46892;45.668;11.756;2023-06-14T03:18:12;9.10;;;5.30;;
55312;SDS011;46892;45.668;11.756;2023-06-14T03:20:40;9.67;;;5.13;;
55312;SDS011;46892;45.668;11.756;2023-06-14T03:23:06;9.70;;;5.27;;
55312;SDS011;46892;45.668;11.756;2023-06-14T03:25:32;9.13;;;5.10;;
55312;SDS011;46892;45.668;11.756;2023-06-14T03:28:00;8.53;;;4.43;;
55312;SDS011;46892;45.668;11.756;2023-06-14T03:30:27;6.37;;;4.60;;
55312;SDS011;46892;45.668;11.756;2023-06-14T03:32:55;7.97;;;4.50;;
55312;SDS011;46892;45.668;11.756;2023-06-14T03:35:22;4.97;;;3.90;;
55312;SDS011;46892;45.668;11.756;2023-06-14T03:37:48;5.73;;;4.40;;
55312;SDS011;46892;45.668;11.756;2023-06-14T03:40:15;6.83;;;4.33;;
55312;SDS011;46892;45.668;11.756;2023-06-14T03:42:42;9.33;;;4.90;;
55312;SDS011;46892;45.668;11.756;2023-06-14T03:45:08;10.20;;;4.73;;
55312;SDS011;46892;45.668;11.756;2023-06-14T03:47:34;7.40;;;4.23;;
55312;SDS011;46892;45.668;11.756;2023-06-14T03:50:01;8.73;;;4.50;;
55312;SDS011;46892;45.668;11.756;2023-06-14T03:52:27;4.83;;;3.77;;
55312;SDS011;46892;45.668;11.756;2023-06-14T03:54:53;4.67;;;3.60;;
55312;SDS011;46892;45.668;11.756;2023-06-14T03:57:19;6.23;;;3.70;;
55312;SDS011;46892;45.668;11.756;2023-06-14T03:59:47;7.27;;;3.73;;
55312;SDS011;46892;45.668;11.756;2023-06-14T04:02:13;6.03;;;4.00;;
55312;SDS011;46892;45.668;11.756;2023-06-14T04:04:42;7.75;;;4.22;;
55312;SDS011;46892;45.668;11.756;2023-06-14T04:07:10;6.77;;;3.80;;
55312;SDS011;46892;45.668;11.756;2023-06-14T04:09:37;6.13;;;3.43;;
55312;SDS011;46892;45.668;11.756;2023-06-14T04:12:04;8.23;;;3.40;;
55312;SDS011;46892;45.668;11.756;2023-06-14T04:14:31;8.13;;;3.33;;
55312;SDS011;46892;45.668;11.756;2023-06-14T04:16:58;5.47;;;3.60;;
55312;SDS011;46892;45.668;11.756;2023-06-14T04:19:24;6.67;;;3.60;;
55312;SDS011;46892;45.668;11.756;2023-06-14T04:21:50;6.07;;;3.27;;
55312;SDS011;46892;45.668;11.756;2023-06-14T04:24:15;5.47;;;3.40;;
55312;SDS011;46892;45.668;11.756;2023-06-14T04:26:42;3.60;;;2.90;;
55312;SDS011;46892;45.668;11.756;2023-06-14T04:29:13;11.43;;;3.70;;
55312;SDS011;46892;45.668;11.756;2023-06-14T04:31:41;5.03;;;3.27;;
55312;SDS011;46892;45.668;11.756;2023-06-14T04:34:07;6.53;;;3.50;;
55312;SDS011;46892;45.668;11.756;2023-06-14T04:36:33;5.60;;;3.63;;
55312;SDS011;46892;45.668;11.756;2023-06-14T04:39:02;9.30;;;3.83;;
55312;SDS011;46892;45.668;11.756;2023-06-14T04:41:29;6.10;;;3.63;;
55312;SDS011;46892;45.668;11.756;2023-06-14T04:43:57;5.77;;;3.40;;
55312;SDS011;46892;45.668;11.756;2023-06-14T04:46:26;5.15;;;3.42;;
55312;SDS011;46892;45.668;11.756;2023-06-14T04:48:53;4.40;;;3.30;;
55312;SDS011;46892;45.668;11.756;2023-06-14T04:51:19;8.10;;;3.80;;
55312;SDS011;46892;45.668;11.756;2023-06-14T04:53:47;6.20;;;3.50;;
55312;SDS011;46892;45.668;11.756;2023-06-14T04:56:14;6.13;;;3.50;;
55312;SDS011;46892;45.668;11.756;2023-06-14T04:58:41;4.53;;;3.20;;
55312;SDS011;46892;45.668;11.756;2023-06-14T05:01:08;4.80;;;3.40;;
55312;SDS011;46892;45.668;11.756;2023-06-14T05:03:34;4.67;;;3.63;;
55312;SDS011;46892;45.668;11.756;2023-06-14T05:06:00;5.30;;;3.00;;
55312;SDS011;46892;45.668;11.756;2023-06-14T05:08:26;4.93;;;3.00;;
55312;SDS011;46892;45.668;11.756;2023-06-14T05:10:51;5.60;;;3.33;;
55312;SDS011;46892;45.668;11.756;2023-06-14T05:13:18;5.87;;;3.43;;
55312;SDS011;46892;45.668;11.756;2023-06-14T05:15:44;4.23;;;3.30;;
55312;SDS011;46892;45.668;11.756;2023-06-14T05:18:10;4.30;;;3.30;;
55312;SDS011;46892;45.668;11.756;2023-06-14T05:20:35;7.30;;;3.60;;
55312;SDS011;46892;45.668;11.756;2023-06-14T05:23:02;5.47;;;3.73;;
55312;SDS011;46892;45.668;11.756;2023-06-14T05:25:28;6.03;;;3.60;;
55312;SDS011;46892;45.668;11.756;2023-06-14T05:27:53;8.40;;;3.73;;
55312;SDS011;46892;45.668;11.756;2023-06-14T05:30:19;5.50;;;3.33;;
55312;SDS011;46892;45.668;11.756;2023-06-14T05:32:45;5.00;;;3.33;;
55312;SDS011;46892;45.668;11.756;2023-06-14T05:35:11;6.50;;;3.70;;
55312;SDS011;46892;45.668;11.756;2023-06-14T05:37:37;5.17;;;3.20;;
55312;SDS011;46892;45.668;11.756;2023-06-14T05:40:03;5.80;;;3.40;;
55312;SDS011;46892;45.668;11.756;2023-06-14T05:42:31;4.17;;;3.17;;
55312;SDS011;46892;45.668;11.756;2023-06-14T05:44:57;4.70;;;2.77;;
55312;SDS011;46892;45.668;11.756;2023-06-14T05:47:23;3.87;;;2.80;;
55312;SDS011;46892;45.668;11.756;2023-06-14T05:49:49;8.10;;;3.37;;
55312;SDS011;46892;45.668;11.756;2023-06-14T05:52:14;4.17;;;2.87;;
55312;SDS011;46892;45.668;11.756;2023-06-14T05:54:40;3.73;;;2.70;;
55312;SDS011;46892;45.668;11.756;2023-06-14T05:57:06;3.67;;;2.70;;
55312;SDS011;46892;45.668;11.756;2023-06-14T05:59:32;4.47;;;3.07;;
55312;SDS011;46892;45.668;11.756;2023-06-14T06:01:58;4.63;;;2.77;;
55312;SDS011;46892;45.668;11.756;2023-06-14T06:04:24;3.80;;;2.60;;
55312;SDS011;46892;45.668;11.756;2023-06-14T06:06:49;3.80;;;2.97;;
55312;SDS011;46892;45.668;11.756;2023-06-14T06:09:15;4.90;;;2.80;;
55312;SDS011;46892;45.668;11.756;2023-06-14T06:11:41;3.57;;;2.77;;
55312;SDS011;46892;45.668;11.756;2023-06-14T06:14:06;5.17;;;2.57;;
55312;SDS011;46892;45.668;11.756;2023-06-14T06:16:32;2.70;;;2.17;;
55312;SDS011;46892;45.668;11.756;2023-06-14T06:18:58;4.03;;;2.27;;
55312;SDS011;46892;45.668;11.756;2023-06-14T06:21:24;3.40;;;2.47;;
55312;SDS011;46892;45.668;11.756;2023-06-14T06:23:50;4.37;;;2.53;;
55312;SDS011;46892;45.668;11.756;2023-06-14T06:26:16;3.40;;;2.43;;
55312;SDS011;46892;45.668;11.756;2023-06-14T06:28:41;4.03;;;2.40;;
55312;SDS011;46892;45.668;11.756;2023-06-14T06:31:07;4.10;;;2.30;;
55312;SDS011;46892;45.668;11.756;2023-06-14T06:33:33;4.13;;;2.43;;
55312;SDS011;46892;45.668;11.756;2023-06-14T06:35:59;3.47;;;2.40;;
55312;SDS011;46892;45.668;11.756;2023-06-14T06:38:24;3.43;;;2.33;;
55312;SDS011;46892;45.668;11.756;2023-06-14T06:40:50;5.47;;;2.57;;
55312;SDS011;46892;45.668;11.756;2023-06-14T06:43:16;4.00;;;2.47;;
55312;SDS011;46892;45.668;11.756;2023-06-14T06:45:42;2.93;;;2.10;;
55312;SDS011;46892;45.668;11.756;2023-06-14T06:48:08;3.90;;;2.63;;
55312;SDS011;46892;45.668;11.756;2023-06-14T06:50:37;3.20;;;2.30;;
55312;SDS011;46892;45.668;11.756;2023-06-14T06:53:03;3.13;;;2.50;;
55312;SDS011;46892;45.668;11.756;2023-06-14T06:55:30;2.43;;;2.13;;
55312;SDS011;46892;45.668;11.756;2023-06-14T06:57:56;4.50;;;2.30;;
55312;SDS011;46892;45.668;11.756;2023-06-14T07:00:21;3.75;;;2.33;;
55312;SDS011;46892;45.668;11.756;2023-06-14T07:02:48;3.88;;;2.35;;
55312;SDS011;46892;45.668;11.756;2023-06-14T07:05:13;5.15;;;2.10;;
55312;SDS011;46892;45.668;11.756;2023-06-14T07:07:39;4.85;;;2.58;;
55312;SDS011;46892;45.668;11.756;2023-06-14T07:10:05;5.38;;;2.33;;
55312;SDS011;46892;45.668;11.756;2023-06-14T07:12:32;4.20;;;2.30;;
55312;SDS011;46892;45.668;11.756;2023-06-14T07:15:01;3.53;;;2.20;;
55312;SDS011;46892;45.668;11.756;2023-06-14T07:17:27;4.15;;;2.58;;
55312;SDS011;46892;45.668;11.756;2023-06-14T07:19:52;3.72;;;2.45;;
55312;SDS011;46892;45.668;11.756;2023-06-14T07:22:18;5.20;;;2.53;;
55312;SDS011;46892;45.668;11.756;2023-06-14T07:24:45;4.30;;;2.67;;
55312;SDS011;46892;45.668;11.756;2023-06-14T07:27:10;5.53;;;2.75;;
55312;SDS011;46892;45.668;11.756;2023-06-14T07:29:38;3.70;;;2.65;;
55312;SDS011;46892;45.668;11.756;2023-06-14T07:32:04;5.15;;;2.80;;
55312;SDS011;46892;45.668;11.756;2023-06-14T07:34:30;4.35;;;2.85;;
55312;SDS011;46892;45.668;11.756;2023-06-14T07:36:56;5.75;;;2.85;;
55312;SDS011;46892;45.668;11.756;2023-06-14T07:39:22;4.80;;;2.60;;
55312;SDS011;46892;45.668;11.756;2023-06-14T07:41:48;5.43;;;3.13;;
55312;SDS011;46892;45.668;11.756;2023-06-14T07:44:14;4.97;;;3.20;;
55312;SDS011;46892;45.668;11.756;2023-06-14T07:46:41;4.15;;;2.88;;
55312;SDS011;46892;45.668;11.756;2023-06-14T07:49:07;4.47;;;2.80;;
55312;SDS011;46892;45.668;11.756;2023-06-14T07:51:32;4.55;;;3.15;;
55312;SDS011;46892;45.668;11.756;2023-06-14T07:53:59;4.63;;;2.90;;
55312;SDS011;46892;45.668;11.756;2023-06-14T07:56:28;5.13;;;2.70;;
55312;SDS011;46892;45.668;11.756;2023-06-14T07:58:54;4.78;;;3.28;;
55312;SDS011;46892;45.668;11.756;2023-06-14T08:01:19;3.15;;;2.47;;
55312;SDS011;46892;45.668;11.756;2023-06-14T08:03:45;4.35;;;2.63;;
55312;SDS011;46892;45.668;11.756;2023-06-14T08:06:11;4.07;;;2.90;;
55312;SDS011;46892;45.668;11.756;2023-06-14T08:08:37;4.20;;;2.72;;
55312;SDS011;46892;45.668;11.756;2023-06-14T08:11:02;6.35;;;3.22;;
55312;SDS011;46892;45.668;11.756;2023-06-14T08:13:28;7.28;;;2.85;;
55312;SDS011;46892;45.668;11.756;2023-06-14T08:15:54;6.75;;;2.72;;
55312;SDS011;46892;45.668;11.756;2023-06-14T08:18:22;4.47;;;2.87;;
55312;SDS011;46892;45.668;11.756;2023-06-14T08:20:48;8.75;;;2.83;;
55312;SDS011;46892;45.668;11.756;2023-06-14T08:23:15;6.80;;;3.25;;
55312;SDS011;46892;45.668;11.756;2023-06-14T08:25:44;3.58;;;2.97;;
55312;SDS011;46892;45.668;11.756;2023-06-14T08:28:10;5.80;;;3.38;;
55312;SDS011;46892;45.668;11.756;2023-06-14T08:30:36;5.78;;;2.85;;
55312;SDS011;46892;45.668;11.756;2023-06-14T08:33:01;4.25;;;3.28;;
55312;SDS011;46892;45.668;11.756;2023-06-14T08:35:27;6.03;;;2.90;;
55312;SDS011;46892;45.668;11.756;2023-06-14T08:37:53;4.00;;;3.15;;
55312;SDS011;46892;45.668;11.756;2023-06-14T08:40:20;5.88;;;2.90;;
55312;SDS011;46892;45.668;11.756;2023-06-14T08:42:47;6.60;;;3.35;;
55312;SDS011;46892;45.668;11.756;2023-06-14T08:45:16;5.72;;;3.50;;
55312;SDS011;46892;45.668;11.756;2023-06-14T08:47:42;4.00;;;3.17;;
55312;SDS011;46892;45.668;11.756;2023-06-14T08:50:08;4.35;;;3.00;;
55312;SDS011;46892;45.668;11.756;2023-06-14T08:52:36;5.93;;;3.03;;
55312;SDS011;46892;45.668;11.756;2023-06-14T08:55:10;4.55;;;3.17;;
55312;SDS011;46892;45.668;11.756;2023-06-14T08:57:36;6.03;;;3.05;;
55312;SDS011;46892;45.668;11.756;2023-06-14T09:00:04;4.07;;;2.75;;
55312;SDS011;46892;45.668;11.756;2023-06-14T09:02:37;6.20;;;3.38;;
55312;SDS011;46892;45.668;11.756;2023-06-14T09:05:11;4.25;;;3.22;;
55312;SDS011;46892;45.668;11.756;2023-06-14T09:07:43;5.30;;;3.08;;
55312;SDS011;46892;45.668;11.756;2023-06-14T09:10:10;4.63;;;3.10;;
55312;SDS011;46892;45.668;11.756;2023-06-14T09:12:39;4.85;;;3.20;;
55312;SDS011;46892;45.668;11.756;2023-06-14T09:15:05;4.82;;;3.15;;
55312;SDS011;46892;45.668;11.756;2023-06-14T09:17:34;4.15;;;3.17;;
55312;SDS011;46892;45.668;11.756;2023-06-14T09:20:02;4.63;;;2.85;;
55312;SDS011;46892;45.668;11.756;2023-06-14T09:22:32;3.63;;;2.80;;
55312;SDS011;46892;45.668;11.756;2023-06-14T09:24:58;5.97;;;3.40;;
55312;SDS011;46892;45.668;11.756;2023-06-14T09:27:28;5.55;;;3.50;;
55312;SDS011;46892;45.668;11.756;2023-06-14T09:29:54;4.82;;;3.05;;
55312;SDS011;46892;45.668;11.756;2023-06-14T09:32:22;6.32;;;3.60;;
55312;SDS011;46892;45.668;11.756;2023-06-14T09:34:48;8.90;;;3.90;;
55312;SDS011;46892;45.668;11.756;2023-06-14T09:37:36;4.87;;;3.27;;
55312;SDS011;46892;45.668;11.756;2023-06-14T09:40:03;5.72;;;3.00;;
55312;SDS011;46892;45.668;11.756;2023-06-14T09:42:29;3.67;;;2.83;;
55312;SDS011;46892;45.668;11.756;2023-06-14T09:44:56;4.30;;;3.10;;
55312;SDS011;46892;45.668;11.756;2023-06-14T09:47:22;4.00;;;2.40;;
55312;SDS011;46892;45.668;11.756;2023-06-14T09:49:51;4.25;;;2.80;;
55312;SDS011;46892;45.668;11.756;2023-06-14T09:52:20;4.95;;;3.20;;
55312;SDS011;46892;45.668;11.756;2023-06-14T09:54:47;3.90;;;3.00;;
55312;SDS011;46892;45.668;11.756;2023-06-14T09:57:17;5.78;;;2.85;;
55312;SDS011;46892;45.668;11.756;2023-06-14T09:59:47;4.90;;;3.10;;
55312;SDS011;46892;45.668;11.756;2023-06-14T10:02:26;6.85;;;3.15;;
55312;SDS011;46892;45.668;11.756;2023-06-14T10:07:32;5.00;;;3.30;;
55312;SDS011;46892;45.668;11.756;2023-06-14T10:10:04;5.47;;;3.03;;
55312;SDS011;46892;45.668;11.756;2023-06-14T10:12:30;6.35;;;3.47;;
55312;SDS011;46892;45.668;11.756;2023-06-14T10:14:56;5.30;;;3.10;;
55312;SDS011;46892;45.668;11.756;2023-06-14T10:23:16;5.00;;;3.10;;
55312;SDS011;46892;45.668;11.756;2023-06-14T10:25:45;4.40;;;3.20;;
55312;SDS011;46892;45.668;11.756;2023-06-14T10:28:20;6.93;;;3.63;;
55312;SDS011;46892;45.668;11.756;2023-06-14T10:31:01;5.63;;;3.22;;
55312;SDS011;46892;45.668;11.756;2023-06-14T10:33:52;4.43;;;3.13;;
55312;SDS011;46892;45.668;11.756;2023-06-14T10:38:56;4.33;;;3.13;;
55312;SDS011;46892;45.668;11.756;2023-06-14T10:41:25;4.60;;;3.00;;
55312;SDS011;46892;45.668;11.756;2023-06-14T10:44:06;7.13;;;2.92;;
55312;SDS011;46892;45.668;11.756;2023-06-14T10:46:37;5.05;;;3.40;;
55312;SDS011;46892;45.668;11.756;2023-06-14T10:49:11;6.82;;;3.40;;
55312;SDS011;46892;45.668;11.756;2023-06-14T10:51:44;8.27;;;3.28;;
55312;SDS011;46892;45.668;11.756;2023-06-14T10:56:46;5.68;;;3.22;;
55312;SDS011;46892;45.668;11.756;2023-06-14T10:59:17;4.37;;;3.10;;
55312;SDS011;46892;45.668;11.756;2023-06-14T11:01:53;4.20;;;3.00;;
55312;SDS011;46892;45.668;11.756;2023-06-14T11:04:46;8.35;;;3.25;;
55312;SDS011;46892;45.668;11.756;2023-06-14T11:10:15;5.93;;;3.28;;
55312;SDS011;46892;45.668;11.756;2023-06-14T11:12:50;5.43;;;3.25;;
55312;SDS011;46892;45.668;11.756;2023-06-14T11:15:19;6.25;;;3.40;;
55312;SDS011;46892;45.668;11.756;2023-06-14T11:17:51;4.95;;;2.80;;
55312;SDS011;46892;45.668;11.756;2023-06-14T11:20:24;3.70;;;2.75;;
55312;SDS011;46892;45.668;11.756;2023-06-14T11:22:51;4.25;;;2.80;;
55312;SDS011;46892;45.668;11.756;2023-06-14T11:25:17;3.97;;;2.70;;
55312;SDS011;46892;45.668;11.756;2023-06-14T11:27:43;5.30;;;2.92;;
55312;SDS011;46892;45.668;11.756;2023-06-14T11:30:10;5.15;;;2.92;;
55312;SDS011;46892;45.668;11.756;2023-06-14T11:32:36;4.40;;;2.97;;
55312;SDS011;46892;45.668;11.756;2023-06-14T11:35:03;5.40;;;3.38;;
55312;SDS011;46892;45.668;11.756;2023-06-14T11:37:30;5.80;;;3.15;;
55312;SDS011;46892;45.668;11.756;2023-06-14T11:39:58;5.20;;;2.85;;
55312;SDS011;46892;45.668;11.756;2023-06-14T11:42:27;4.90;;;2.88;;
55312;SDS011;46892;45.668;11.756;2023-06-14T11:44:53;4.45;;;2.85;;
55312;SDS011;46892;45.668;11.756;2023-06-14T11:47:20;4.90;;;3.10;;
55312;SDS011;46892;45.668;11.756;2023-06-14T11:49:46;5.30;;;2.97;;
55312;SDS011;46892;45.668;11.756;2023-06-14T11:52:12;6.55;;;3.30;;
55312;SDS011;46892;45.668;11.756;2023-06-14T11:54:38;5.30;;;3.05;;
55312;SDS011;46892;45.668;11.756;2023-06-14T11:57:08;5.15;;;3.00;;
55312;SDS011;46892;45.668;11.756;2023-06-14T11:59:39;5.13;;;2.90;;
55312;SDS011;46892;45.668;11.756;2023-06-14T12:02:05;4.28;;;3.25;;
55312;SDS011;46892;45.668;11.756;2023-06-14T12:04:32;5.57;;;2.75;;
55312;SDS011;46892;45.668;11.756;2023-06-14T12:07:08;4.95;;;2.85;;
55312;SDS011;46892;45.668;11.756;2023-06-14T12:09:36;4.32;;;3.00;;
55312;SDS011;46892;45.668;11.756;2023-06-14T12:12:02;4.70;;;3.13;;
55312;SDS011;46892;45.668;11.756;2023-06-14T12:14:31;5.05;;;3.15;;
55312;SDS011;46892;45.668;11.756;2023-06-14T12:17:04;7.03;;;2.78;;
55312;SDS011;46892;45.668;11.756;2023-06-14T12:19:31;5.00;;;2.53;;
55312;SDS011;46892;45.668;11.756;2023-06-14T12:21:59;3.95;;;2.58;;
55312;SDS011;46892;45.668;11.756;2023-06-14T12:24:29;5.28;;;2.75;;
55312;SDS011;46892;45.668;11.756;2023-06-14T12:26:57;3.42;;;2.60;;
55312;SDS011;46892;45.668;11.756;2023-06-14T12:29:29;5.53;;;2.70;;
55312;SDS011;46892;45.668;11.756;2023-06-14T12:31:55;5.72;;;2.83;;
55312;SDS011;46892;45.668;11.756;2023-06-14T12:34:25;4.78;;;2.83;;
55312;SDS011;46892;45.668;11.756;2023-06-14T12:39:18;3.95;;;2.58;;
55312;SDS011;46892;45.668;11.756;2023-06-14T12:41:44;4.53;;;2.50;;
55312;SDS011;46892;45.668;11.756;2023-06-14T12:44:13;5.10;;;2.80;;
55312;SDS011;46892;45.668;11.756;2023-06-14T12:46:39;4.00;;;2.90;;
55312;SDS011;46892;45.668;11.756;2023-06-14T12:49:09;4.00;;;2.78;;
55312;SDS011;46892;45.668;11.756;2023-06-14T12:51:36;3.30;;;2.45;;
55312;SDS011;46892;45.668;11.756;2023-06-14T12:54:05;5.00;;;2.78;;
55312;SDS011;46892;45.668;11.756;2023-06-14T12:56:31;4.07;;;2.90;;
55312;SDS011;46892;45.668;11.756;2023-06-14T12:58:57;4.45;;;2.67;;
55312;SDS011;46892;45.668;11.756;2023-06-14T13:01:24;6.10;;;2.42;;
55312;SDS011;46892;45.668;11.756;2023-06-14T13:03:50;3.15;;;2.40;;
55312;SDS011;46892;45.668;11.756;2023-06-14T13:06:16;3.22;;;2.67;;
55312;SDS011;46892;45.668;11.756;2023-06-14T13:08:42;4.75;;;2.45;;
55312;SDS011;46892;45.668;11.756;2023-06-14T13:11:08;3.95;;;2.70;;
55312;SDS011;46892;45.668;11.756;2023-06-14T13:13:34;4.53;;;2.85;;
55312;SDS011;46892;45.668;11.756;2023-06-14T13:16:00;5.07;;;2.83;;
55312;SDS011;46892;45.668;11.756;2023-06-14T13:18:26;8.07;;;3.20;;
55312;SDS011;46892;45.668;11.756;2023-06-14T13:20:51;4.40;;;2.85;;
55312;SDS011;46892;45.668;11.756;2023-06-14T13:23:17;4.57;;;2.78;;
55312;SDS011;46892;45.668;11.756;2023-06-14T13:25:43;3.80;;;2.60;;
55312;SDS011;46892;45.668;11.756;2023-06-14T13:28:09;3.83;;;2.72;;
55312;SDS011;46892;45.668;11.756;2023-06-14T13:30:36;5.13;;;2.92;;
55312;SDS011;46892;45.668;11.756;2023-06-14T13:33:02;4.72;;;2.80;;
55312;SDS011;46892;45.668;11.756;2023-06-14T13:35:28;3.95;;;2.92;;
55312;SDS011;46892;45.668;11.756;2023-06-14T13:37:53;4.47;;;2.50;;
55312;SDS011;46892;45.668;11.756;2023-06-14T13:40:19;4.57;;;3.30;;
55312;SDS011;46892;45.668;11.756;2023-06-14T13:42:46;4.97;;;3.10;;
55312;SDS011;46892;45.668;11.756;2023-06-14T13:45:12;5.55;;;2.60;;
55312;SDS011;46892;45.668;11.756;2023-06-14T13:47:38;4.03;;;3.00;;
55312;SDS011;46892;45.668;11.756;2023-06-14T13:50:04;4.20;;;2.53;;
55312;SDS011;46892;45.668;11.756;2023-06-14T13:52:30;4.50;;;2.75;;
55312;SDS011;46892;45.668;11.756;2023-06-14T13:54:56;5.05;;;2.63;;
55312;SDS011;46892;45.668;11.756;2023-06-14T13:57:22;7.97;;;2.88;;
55312;SDS011;46892;45.668;11.756;2023-06-14T13:59:48;5.35;;;3.30;;
55312;SDS011;46892;45.668;11.756;2023-06-14T14:02:14;4.40;;;2.70;;
55312;SDS011;46892;45.668;11.756;2023-06-14T14:04:40;3.88;;;2.78;;
55312;SDS011;46892;45.668;11.756;2023-06-14T14:07:06;2.88;;;2.40;;
55312;SDS011;46892;45.668;11.756;2023-06-14T14:09:32;4.00;;;2.80;;
55312;SDS011;46892;45.668;11.756;2023-06-14T14:11:59;3.35;;;2.47;;
55312;SDS011;46892;45.668;11.756;2023-06-14T14:14:27;4.93;;;2.40;;
55312;SDS011;46892;45.668;11.756;2023-06-14T14:16:53;5.70;;;2.83;;
55312;SDS011;46892;45.668;11.756;2023-06-14T14:19:20;3.85;;;2.45;;
55312;SDS011;46892;45.668;11.756;2023-06-14T14:21:47;3.47;;;2.67;;
55312;SDS011;46892;45.668;11.756;2023-06-14T14:24:12;3.78;;;2.70;;
55312;SDS011;46892;45.668;11.756;2023-06-14T14:26:38;5.65;;;2.67;;
55312;SDS011;46892;45.668;11.756;2023-06-14T14:29:05;5.00;;;2.70;;
55312;SDS011;46892;45.668;11.756;2023-06-14T14:31:31;4.60;;;3.13;;
55312;SDS011;46892;45.668;11.756;2023-06-14T14:33:56;5.60;;;2.65;;
55312;SDS011;46892;45.668;11.756;2023-06-14T14:36:22;4.93;;;2.85;;
55312;SDS011;46892;45.668;11.756;2023-06-14T14:38:48;5.63;;;2.60;;
55312;SDS011;46892;45.668;11.756;2023-06-14T14:41:14;5.88;;;2.65;;
55312;SDS011;46892;45.668;11.756;2023-06-14T14:43:39;5.78;;;2.42;;
55312;SDS011;46892;45.668;11.756;2023-06-14T14:46:05;4.75;;;2.63;;
55312;SDS011;46892;45.668;11.756;2023-06-14T14:48:31;4.25;;;2.85;;
55312;SDS011;46892;45.668;11.756;2023-06-14T14:50:57;9.85;;;2.95;;
55312;SDS011;46892;45.668;11.756;2023-06-14T14:53:23;5.05;;;2.80;;
55312;SDS011;46892;45.668;11.756;2023-06-14T14:55:49;4.18;;;2.40;;
55312;SDS011;46892;45.668;11.756;2023-06-14T14:58:15;5.32;;;2.53;;